createdAt,value
2022-09-06T00:01:12.718Z,7.70
2022-09-06T00:03:41.955Z,6.40
2022-09-06T00:06:16.750Z,7.00
2022-09-06T00:08:46.932Z,7.30
2022-09-06T00:11:17.722Z,7.10
2022-09-06T00:13:47.824Z,8.20
2022-09-06T00:16:28.397Z,9.10
2022-09-06T00:18:58.699Z,7.70
2022-09-06T00:21:31.079Z,7.00
2022-09-06T00:23:59.975Z,8.00
2022-09-06T00:26:28.639Z,7.40
2022-09-06T00:28:57.185Z,8.70
2022-09-06T00:31:27.662Z,7.50
2022-09-06T00:33:56.215Z,7.10
2022-09-06T00:36:24.830Z,8.10
2022-09-06T00:38:53.305Z,9.10
2022-09-06T00:41:21.813Z,8.20
2022-09-06T00:43:50.603Z,8.10
2022-09-06T00:46:23.757Z,8.00
2022-09-06T00:49:31.245Z,6.50
2022-09-06T00:52:11.261Z,7.20
2022-09-06T00:54:40.711Z,8.10
2022-09-06T00:57:10.856Z,7.90
2022-09-06T00:59:41.903Z,7.40
2022-09-06T01:02:11.378Z,8.80
2022-09-06T01:04:44.218Z,8.20
2022-09-06T01:07:27.110Z,8.00
2022-09-06T01:10:13.141Z,8.10
2022-09-06T01:13:00.400Z,8.00
2022-09-06T01:15:39.396Z,7.20
2022-09-06T01:18:42.486Z,7.80
2022-09-06T01:21:44.329Z,8.90
2022-09-06T01:24:57.119Z,8.60
2022-09-06T01:27:54.564Z,8.30
2022-09-06T01:30:23.308Z,7.80
2022-09-06T01:33:04.328Z,7.70
2022-09-06T01:35:56.227Z,7.90
2022-09-06T01:38:24.724Z,8.30
2022-09-06T01:40:54.124Z,8.00
2022-09-06T01:43:46.331Z,7.40
2022-09-06T01:46:40.101Z,9.00
2022-09-06T01:49:40.093Z,8.20
2022-09-06T01:52:15.079Z,7.50
2022-09-06T01:55:22.668Z,7.70
2022-09-06T01:58:05.023Z,8.30
2022-09-06T02:00:43.657Z,7.60
2022-09-06T02:03:42.029Z,8.10
2022-09-06T02:06:18.661Z,7.50
2022-09-06T02:09:13.360Z,7.60
2022-09-06T02:11:51.071Z,9.00
2022-09-06T02:14:56.273Z,8.30
2022-09-06T02:17:33.023Z,8.10
2022-09-06T02:20:11.614Z,7.80
2022-09-06T02:22:44.432Z,8.60
2022-09-06T02:25:25.010Z,8.80
2022-09-06T02:27:55.593Z,9.20
2022-09-06T02:30:24.422Z,8.30
2022-09-06T02:33:08.860Z,8.90
2022-09-06T02:35:52.986Z,10.10
2022-09-06T02:38:24.335Z,8.30
2022-09-06T02:40:54.856Z,9.00
2022-09-06T02:43:23.557Z,8.30
2022-09-06T02:45:52.086Z,8.60
2022-09-06T02:48:20.684Z,8.10
2022-09-06T02:50:49.276Z,8.90
2022-09-06T02:53:18.565Z,9.60
2022-09-06T02:55:48.958Z,10.10
2022-09-06T02:58:17.484Z,9.00
2022-09-06T03:00:46.250Z,8.80
2022-09-06T03:03:15.012Z,8.90
2022-09-06T03:05:50.122Z,8.80
2022-09-06T03:08:20.865Z,8.40
2022-09-06T03:10:51.463Z,9.30
2022-09-06T03:13:21.176Z,9.20
2022-09-06T03:15:58.507Z,8.60
2022-09-06T03:18:29.882Z,9.60
2022-09-06T03:20:59.207Z,8.00
2022-09-06T03:23:29.885Z,8.90
2022-09-06T03:25:58.333Z,8.50
2022-09-06T03:28:27.970Z,8.60
2022-09-06T03:30:56.694Z,9.40
2022-09-06T03:33:25.273Z,9.50
2022-09-06T03:36:00.226Z,9.50
2022-09-06T03:38:29.937Z,8.30
2022-09-06T03:40:58.802Z,9.00
2022-09-06T03:43:27.891Z,8.30
2022-09-06T03:45:57.911Z,8.80
2022-09-06T03:48:29.943Z,7.80
2022-09-06T03:50:59.655Z,9.50
2022-09-06T03:53:29.588Z,8.90
2022-09-06T03:55:59.034Z,9.70
2022-09-06T03:58:31.446Z,8.90
2022-09-06T04:01:06.402Z,8.80
2022-09-06T04:03:36.084Z,7.90
2022-09-06T04:06:06.677Z,8.40
2022-09-06T04:08:36.497Z,8.20
2022-09-06T04:11:06.091Z,8.20
2022-09-06T04:13:34.902Z,8.70
2022-09-06T04:16:05.470Z,8.60
2022-09-06T04:18:34.014Z,9.20
2022-09-06T04:21:03.012Z,10.00
2022-09-06T04:23:34.336Z,10.70
2022-09-06T04:26:06.363Z,9.90
2022-09-06T04:28:34.935Z,14.70
2022-09-06T04:31:05.228Z,16.30
2022-09-06T04:33:36.267Z,12.80
2022-09-06T04:36:10.019Z,12.50
2022-09-06T04:38:44.089Z,9.60
2022-09-06T04:41:16.109Z,10.00
2022-09-06T04:43:46.208Z,9.40
2022-09-06T04:46:30.303Z,9.20
2022-09-06T04:48:58.740Z,9.90
2022-09-06T04:51:27.778Z,9.30
2022-09-06T04:53:56.247Z,7.90
2022-09-06T04:56:26.706Z,7.70
2022-09-06T04:58:56.129Z,7.80
2022-09-06T05:01:26.515Z,7.40
2022-09-06T05:03:56.985Z,8.60
2022-09-06T05:06:26.354Z,8.80
2022-09-06T05:08:54.711Z,8.00
2022-09-06T05:11:23.072Z,7.70
2022-09-06T05:13:51.464Z,8.50
2022-09-06T05:16:19.865Z,9.10
2022-09-06T05:18:48.232Z,16.90
2022-09-06T05:21:17.177Z,12.30
2022-09-06T05:23:45.629Z,9.00
2022-09-06T05:26:14.101Z,10.90
2022-09-06T05:28:42.351Z,9.10
2022-09-06T05:31:27.264Z,9.50
2022-09-06T05:33:57.834Z,9.70
2022-09-06T05:36:28.900Z,10.10
2022-09-06T05:38:58.845Z,7.40
2022-09-06T05:41:27.654Z,7.30
2022-09-06T05:43:56.074Z,7.60
2022-09-06T05:46:24.445Z,8.50
2022-09-06T05:49:01.285Z,8.50
2022-09-06T05:51:29.633Z,8.00
2022-09-06T05:53:58.155Z,8.70
2022-09-06T05:56:26.534Z,8.50
2022-09-06T05:58:54.908Z,9.10
2022-09-06T06:01:28.403Z,9.70
2022-09-06T06:04:03.448Z,9.00
2022-09-06T06:06:34.045Z,8.80
2022-09-06T06:09:02.842Z,9.20
2022-09-06T06:11:31.596Z,10.00
2022-09-06T06:14:00.083Z,10.10
2022-09-06T06:16:28.378Z,10.50
2022-09-06T06:18:56.795Z,9.90
2022-09-06T06:21:31.013Z,9.40
2022-09-06T06:24:05.011Z,9.90
2022-09-06T06:26:36.471Z,11.00
2022-09-06T06:29:08.318Z,7.90
2022-09-06T06:31:39.010Z,10.40
2022-09-06T06:34:08.622Z,9.20
2022-09-06T06:36:37.261Z,8.50
2022-09-06T06:39:08.689Z,8.30
2022-09-06T06:41:37.929Z,8.40
2022-09-06T06:44:18.161Z,7.60
2022-09-06T06:46:46.435Z,7.10
2022-09-06T06:49:14.727Z,7.50
2022-09-06T06:51:43.161Z,7.20
2022-09-06T06:54:11.431Z,6.90
2022-09-06T06:56:44.955Z,7.20
2022-09-06T06:59:14.883Z,5.20
2022-09-06T07:01:43.398Z,6.90
2022-09-06T07:04:12.435Z,6.10
2022-09-06T07:12:31.155Z,6.00
2022-09-06T07:14:59.438Z,6.40
2022-09-06T07:17:28.556Z,6.50
2022-09-06T07:22:41.364Z,6.10
2022-09-06T07:25:13.424Z,5.70
2022-09-06T07:30:17.313Z,5.20
2022-09-06T07:32:45.635Z,5.20
2022-09-06T07:35:14.130Z,5.00
2022-09-06T07:37:42.649Z,5.20
2022-09-06T07:40:11.586Z,4.80
2022-09-06T07:42:40.297Z,4.80
2022-09-06T07:45:09.840Z,5.10
2022-09-06T07:53:23.304Z,3.70
2022-09-06T07:55:59.698Z,4.10
2022-09-06T07:58:33.028Z,2.60
2022-09-06T08:01:30.281Z,3.10
2022-09-06T08:04:05.001Z,2.40
2022-09-06T08:09:26.328Z,3.20
2022-09-06T08:11:54.596Z,2.90
2022-09-06T08:14:22.926Z,2.90
2022-09-06T08:16:51.275Z,3.80
2022-09-06T08:19:19.515Z,3.50
2022-09-06T08:21:47.857Z,3.30
2022-09-06T08:24:16.406Z,3.40
2022-09-06T08:26:44.765Z,1.80
2022-09-06T08:29:13.713Z,2.30
2022-09-06T08:31:44.412Z,1.30
2022-09-06T08:34:14.335Z,1.20
2022-09-06T08:36:43.426Z,1.10
2022-09-06T08:39:12.392Z,1.00
2022-09-06T08:41:46.797Z,1.00
2022-09-06T08:47:14.714Z,1.50
2022-09-06T08:49:46.344Z,1.40
2022-09-06T08:52:26.753Z,1.60
2022-09-06T08:55:16.118Z,1.50
2022-09-06T08:58:10.124Z,1.90
2022-09-06T09:00:39.271Z,1.60
2022-09-06T09:03:23.809Z,2.00
2022-09-06T09:05:56.685Z,2.00
2022-09-06T09:09:07.733Z,1.90
2022-09-06T09:11:38.067Z,1.60
2022-09-06T09:14:24.902Z,2.40
2022-09-06T09:17:00.621Z,2.00
2022-09-06T09:19:32.362Z,2.10
2022-09-06T09:22:01.869Z,1.70
2022-09-06T09:24:32.509Z,2.00
2022-09-06T09:27:11.459Z,1.70
2022-09-06T09:32:46.146Z,1.20
2022-09-06T09:35:17.349Z,1.50
2022-09-06T09:37:47.164Z,1.60
2022-09-06T09:40:18.211Z,1.70
2022-09-06T09:42:46.566Z,1.60
2022-09-06T09:45:21.258Z,1.10
2022-09-06T09:47:49.602Z,1.40
2022-09-06T09:50:36.551Z,1.60
2022-09-06T09:53:15.352Z,1.60
2022-09-06T09:55:44.601Z,1.40
2022-09-06T09:58:33.698Z,2.00
2022-09-06T10:01:21.940Z,1.70
2022-09-06T10:09:44.405Z,1.50
2022-09-06T10:12:30.220Z,1.60
2022-09-06T10:15:02.434Z,1.70
2022-09-06T10:17:38.389Z,1.80
2022-09-06T10:20:11.778Z,1.60
2022-09-06T10:22:58.243Z,1.30
2022-09-06T10:25:49.808Z,1.10
2022-09-06T10:28:34.641Z,1.20
2022-09-06T10:31:40.023Z,1.20
2022-09-06T10:34:42.224Z,1.50
2022-09-06T10:37:24.154Z,1.30
2022-09-06T10:40:08.565Z,1.60
2022-09-06T10:42:57.753Z,1.30
2022-09-06T10:45:44.884Z,1.50
2022-09-06T10:48:41.549Z,1.40
2022-09-06T10:51:29.735Z,1.30
2022-09-06T10:54:06.991Z,1.50
2022-09-06T10:56:50.337Z,1.30
2022-09-06T11:06:13.050Z,1.80
2022-09-06T11:08:53.260Z,1.10
2022-09-06T11:12:08.145Z,1.70
2022-09-06T11:14:37.847Z,1.90
2022-09-06T11:17:52.456Z,1.30
2022-09-06T11:20:20.791Z,1.00
2022-09-06T11:23:22.501Z,1.40
2022-09-06T11:26:29.634Z,1.20
2022-09-06T11:29:18.952Z,0.90
2022-09-06T11:32:24.276Z,1.30
2022-09-06T11:34:59.283Z,1.30
2022-09-06T11:37:44.978Z,1.10
2022-09-06T11:42:57.127Z,1.60
2022-09-06T11:45:52.685Z,1.20
2022-09-06T11:48:23.900Z,1.40
2022-09-06T11:50:55.443Z,0.90
2022-09-06T11:53:36.557Z,1.40
2022-09-06T11:56:04.848Z,1.50
2022-09-06T11:59:00.000Z,1.20
2022-09-06T12:01:28.522Z,1.40
2022-09-06T12:06:41.363Z,1.30
2022-09-06T12:09:36.515Z,1.20
2022-09-06T12:12:06.120Z,1.40
2022-09-06T12:14:43.181Z,1.50
2022-09-06T12:17:11.680Z,1.20
2022-09-06T12:20:07.084Z,1.30
2022-09-06T12:22:41.589Z,1.10
2022-09-06T12:25:20.840Z,1.50
2022-09-06T12:28:07.150Z,0.80
2022-09-06T12:30:48.284Z,1.10
2022-09-06T12:33:19.433Z,1.40
2022-09-06T12:38:25.903Z,1.40
2022-09-06T12:40:59.319Z,1.60
2022-09-06T12:43:28.595Z,1.40
2022-09-06T12:45:57.148Z,1.30
2022-09-06T12:48:36.078Z,1.00
2022-09-06T12:51:16.502Z,1.70
2022-09-06T12:54:07.211Z,1.50
2022-09-06T12:56:35.839Z,1.40
2022-09-06T12:59:23.922Z,1.20
2022-09-06T13:02:20.195Z,1.30
2022-09-06T13:05:01.646Z,1.60
2022-09-06T13:07:31.902Z,1.00
2022-09-06T13:10:01.113Z,1.70
2022-09-06T13:12:37.919Z,1.40
2022-09-06T13:15:32.066Z,1.20
2022-09-06T13:18:30.811Z,1.70
2022-09-06T13:21:32.184Z,1.30
2022-09-06T13:24:04.161Z,1.40
2022-09-06T13:26:39.210Z,1.60
2022-09-06T13:29:16.673Z,1.30
2022-09-06T13:31:53.792Z,2.70
2022-09-06T13:34:28.356Z,1.50
2022-09-06T13:37:07.203Z,1.60
2022-09-06T13:39:38.966Z,1.60
2022-09-06T13:42:25.465Z,1.40
2022-09-06T13:44:56.739Z,1.30
2022-09-06T13:47:30.528Z,1.70
2022-09-06T13:49:59.116Z,1.40
2022-09-06T13:52:27.621Z,1.90
2022-09-06T13:54:56.161Z,1.90
2022-09-06T13:57:24.906Z,2.20
2022-09-06T13:59:53.613Z,1.50
2022-09-06T14:02:22.338Z,1.70
2022-09-06T14:04:51.299Z,1.80
2022-09-06T14:07:19.912Z,1.70
2022-09-06T14:09:51.007Z,1.80
2022-09-06T14:12:19.833Z,1.60
2022-09-06T14:14:48.717Z,1.80
2022-09-06T14:17:17.949Z,1.70
2022-09-06T14:19:46.687Z,1.70
2022-09-06T14:22:15.360Z,1.80
2022-09-06T14:24:44.071Z,1.40
2022-09-06T14:27:12.761Z,2.10
2022-09-06T14:29:41.266Z,2.20
2022-09-06T14:32:09.872Z,1.90
2022-09-06T14:34:38.401Z,2.00
2022-09-06T14:37:10.366Z,1.70
2022-09-06T14:39:41.613Z,2.10
2022-09-06T14:42:10.208Z,2.10
2022-09-06T14:44:38.761Z,2.30
2022-09-06T14:47:07.453Z,1.70
2022-09-06T14:49:36.343Z,2.50
2022-09-06T14:52:05.364Z,2.00
2022-09-06T14:54:34.690Z,2.00
2022-09-06T14:57:03.428Z,2.30
2022-09-06T14:59:32.210Z,1.90
2022-09-06T15:02:01.127Z,1.90
2022-09-06T15:04:30.195Z,2.20
2022-09-06T15:06:58.986Z,2.10
2022-09-06T15:09:28.146Z,2.20
2022-09-06T15:11:56.754Z,1.90
2022-09-06T15:14:29.508Z,2.30
2022-09-06T15:17:00.305Z,2.30
2022-09-06T15:19:31.216Z,2.20
2022-09-06T15:22:00.394Z,2.40
2022-09-06T15:24:29.382Z,2.60
2022-09-06T15:26:59.089Z,2.10
2022-09-06T15:29:27.750Z,2.20
2022-09-06T15:31:57.322Z,2.30
2022-09-06T15:34:27.047Z,2.30
2022-09-06T15:36:56.909Z,2.70
2022-09-06T15:39:25.530Z,2.20
2022-09-06T15:41:54.323Z,2.70
2022-09-06T15:44:22.871Z,2.40
2022-09-06T15:46:59.382Z,2.80
2022-09-06T15:49:32.654Z,2.10
2022-09-06T15:52:03.873Z,2.50
2022-09-06T15:55:19.272Z,2.20
2022-09-06T15:57:47.894Z,2.70
2022-09-06T16:00:18.460Z,2.20
2022-09-06T16:02:47.161Z,3.00
2022-09-06T16:05:16.264Z,2.70
2022-09-06T16:07:44.928Z,2.70
2022-09-06T16:10:14.025Z,2.20
2022-09-06T16:12:44.660Z,3.40
2022-09-06T16:15:15.267Z,2.50
2022-09-06T16:17:44.113Z,2.80
2022-09-06T16:20:12.853Z,3.30
2022-09-06T16:22:41.964Z,2.30
2022-09-06T16:25:10.526Z,2.70
2022-09-06T16:27:39.168Z,3.30
2022-09-06T16:30:08.640Z,3.20
2022-09-06T16:32:37.578Z,2.90
2022-09-06T16:35:06.686Z,3.10
2022-09-06T16:37:36.375Z,3.50
2022-09-06T16:40:05.777Z,3.20
2022-09-06T16:42:34.328Z,3.00
2022-09-06T16:45:03.161Z,3.20
2022-09-06T16:47:32.231Z,3.40
2022-09-06T16:50:01.082Z,3.40
2022-09-06T16:52:30.319Z,3.50
2022-09-06T16:54:58.994Z,3.80
2022-09-06T16:57:27.613Z,2.80
2022-09-06T16:59:56.495Z,2.80
2022-09-06T17:02:25.728Z,3.50
2022-09-06T17:04:54.330Z,3.10
2022-09-06T17:07:23.293Z,3.00
2022-09-06T17:09:52.097Z,2.60
2022-09-06T17:12:22.058Z,3.10
2022-09-06T17:14:50.612Z,2.70
2022-09-06T17:17:19.150Z,3.40
2022-09-06T17:19:47.976Z,2.80
2022-09-06T17:22:16.819Z,3.10
2022-09-06T17:24:45.529Z,2.80
2022-09-06T17:27:14.331Z,2.80
2022-09-06T17:29:42.949Z,2.80
2022-09-06T17:32:11.886Z,3.20
2022-09-06T17:34:41.745Z,3.10
2022-09-06T17:37:10.631Z,3.10
2022-09-06T17:39:39.309Z,3.10
2022-09-06T17:42:09.006Z,3.00
2022-09-06T17:44:37.943Z,3.00
2022-09-06T17:47:14.564Z,3.00
2022-09-06T17:49:43.437Z,2.90
2022-09-06T17:52:12.334Z,3.10
2022-09-06T17:54:41.058Z,2.80
2022-09-06T17:57:09.767Z,3.10
2022-09-06T17:59:38.790Z,3.30
2022-09-06T18:02:07.996Z,2.70
2022-09-06T18:04:37.610Z,2.70
2022-09-06T18:07:06.458Z,3.00
2022-09-06T18:09:37.356Z,3.50
2022-09-06T18:12:07.065Z,2.70
2022-09-06T18:14:35.738Z,2.90
2022-09-06T18:17:04.476Z,3.00
2022-09-06T18:19:33.113Z,3.30
2022-09-06T18:22:01.871Z,3.10
2022-09-06T18:24:30.789Z,3.10
2022-09-06T18:26:59.472Z,3.50
2022-09-06T18:29:28.295Z,3.60
2022-09-06T18:31:57.763Z,3.60
2022-09-06T18:34:26.641Z,3.70
2022-09-06T18:36:55.214Z,4.40
2022-09-06T18:39:23.965Z,3.30
2022-09-06T18:42:01.860Z,3.80
2022-09-06T18:44:34.507Z,3.90
2022-09-06T18:47:06.999Z,3.40
2022-09-06T18:49:39.455Z,4.20
2022-09-06T18:52:09.373Z,3.50
2022-09-06T18:54:38.535Z,2.90
2022-09-06T18:57:07.600Z,3.30
2022-09-06T18:59:36.179Z,3.70
2022-09-06T19:02:04.841Z,3.00
2022-09-06T19:04:33.583Z,3.80
2022-09-06T19:07:05.296Z,2.90
2022-09-06T19:09:33.903Z,3.00
2022-09-06T19:12:03.715Z,2.80
2022-09-06T19:14:33.410Z,3.20
2022-09-06T19:17:02.019Z,3.40
2022-09-06T19:19:30.709Z,3.30
2022-09-06T19:21:59.418Z,3.30
2022-09-06T19:24:28.748Z,3.10
2022-09-06T19:26:57.500Z,3.00
2022-09-06T19:29:27.559Z,2.70
2022-09-06T19:31:56.463Z,3.30
2022-09-06T19:34:25.245Z,3.10
2022-09-06T19:36:55.547Z,2.70
2022-09-06T19:39:32.352Z,3.00
2022-09-06T19:42:02.516Z,2.90
2022-09-06T19:44:31.715Z,3.10
2022-09-06T19:47:00.662Z,2.80
2022-09-06T19:49:31.173Z,2.40
2022-09-06T19:51:59.768Z,2.90
2022-09-06T19:54:28.400Z,3.10
2022-09-06T19:56:56.989Z,2.50
2022-09-06T19:59:25.878Z,2.30
2022-09-06T20:01:54.480Z,2.80
2022-09-06T20:04:23.399Z,3.30
2022-09-06T20:06:52.239Z,3.20
2022-09-06T20:09:20.904Z,2.90
2022-09-06T20:11:49.793Z,2.50
2022-09-06T20:14:18.339Z,3.10
2022-09-06T20:16:47.739Z,2.80
2022-09-06T20:19:17.077Z,3.00
2022-09-06T20:21:45.775Z,2.70
2022-09-06T20:24:15.007Z,2.80
2022-09-06T20:26:43.660Z,3.00
2022-09-06T20:29:12.247Z,3.10
2022-09-06T20:31:40.895Z,3.10
2022-09-06T20:34:10.951Z,3.00
2022-09-06T20:36:39.619Z,2.70
2022-09-06T20:39:08.221Z,2.80
2022-09-06T20:41:37.647Z,3.00
2022-09-06T20:44:06.317Z,3.10
2022-09-06T20:46:36.254Z,3.00
2022-09-06T20:49:05.257Z,2.60
2022-09-06T20:51:36.558Z,2.70
2022-09-06T20:54:06.272Z,2.50
2022-09-06T20:56:40.743Z,3.10
2022-09-06T20:59:12.377Z,3.20
2022-09-06T21:01:46.731Z,3.40
2022-09-06T21:04:17.816Z,3.30
2022-09-06T21:06:47.034Z,3.40
2022-09-06T21:09:16.075Z,3.50
2022-09-06T21:11:45.452Z,3.00
2022-09-06T21:14:14.401Z,3.60
2022-09-06T21:16:43.800Z,4.00
2022-09-06T21:19:13.798Z,4.50
2022-09-06T21:21:43.352Z,3.70
2022-09-06T21:24:12.120Z,3.90
2022-09-06T21:26:43.706Z,4.30
2022-09-06T21:29:12.645Z,3.50
2022-09-06T21:31:41.427Z,4.10
2022-09-06T21:34:16.262Z,3.70
2022-09-06T21:36:46.084Z,4.30
2022-09-06T21:39:15.359Z,4.10
2022-09-06T21:41:44.482Z,4.50
2022-09-06T21:44:13.235Z,3.50
2022-09-06T21:46:42.191Z,4.40
2022-09-06T21:49:14.159Z,3.90
2022-09-06T21:51:42.999Z,4.20
2022-09-06T21:54:11.846Z,3.80
2022-09-06T21:56:40.928Z,3.60
2022-09-06T21:59:11.170Z,3.20
2022-09-06T22:01:43.936Z,4.70
2022-09-06T22:04:14.456Z,3.10
2022-09-06T22:06:42.994Z,3.60
2022-09-06T22:09:13.192Z,3.00
2022-09-06T22:11:44.249Z,3.60
2022-09-06T22:14:15.711Z,3.80
2022-09-06T22:16:44.349Z,3.20
2022-09-06T22:19:13.142Z,3.00
2022-09-06T22:21:41.739Z,3.00
2022-09-06T22:24:12.360Z,2.80
2022-09-06T22:26:42.098Z,3.20
2022-09-06T22:29:13.778Z,2.60
2022-09-06T22:31:42.918Z,3.00
2022-09-06T22:34:11.735Z,2.70
2022-09-06T22:36:40.494Z,3.10
2022-09-06T22:39:10.680Z,2.80
2022-09-06T22:41:39.255Z,3.00
2022-09-06T22:44:08.049Z,2.60
2022-09-06T22:46:37.245Z,2.50
2022-09-06T22:49:06.587Z,2.60
2022-09-06T22:51:35.643Z,2.70
2022-09-06T22:54:04.853Z,2.60
2022-09-06T22:56:34.654Z,2.60
2022-09-06T22:59:03.667Z,2.70
2022-09-06T23:01:34.146Z,2.70
2022-09-06T23:04:03.179Z,2.70
2022-09-06T23:06:31.733Z,2.50
2022-09-06T23:09:00.463Z,2.40
2022-09-06T23:11:32.507Z,3.10
2022-09-06T23:14:01.280Z,3.10
2022-09-06T23:16:29.940Z,2.10
2022-09-06T23:18:58.765Z,2.30
2022-09-06T23:21:27.778Z,3.00
2022-09-06T23:23:59.524Z,2.40
2022-09-06T23:26:31.385Z,2.70
2022-09-06T23:29:00.434Z,2.80
2022-09-06T23:31:34.386Z,2.20
2022-09-06T23:34:04.983Z,2.50
2022-09-06T23:36:34.006Z,2.80
2022-09-06T23:39:02.559Z,2.50
2022-09-06T23:41:31.375Z,2.40
2022-09-06T23:44:00.910Z,2.40
2022-09-06T23:46:30.029Z,2.30
2022-09-06T23:48:59.001Z,2.40
2022-09-06T23:51:27.798Z,2.80
2022-09-06T23:53:56.392Z,2.90
2022-09-06T23:56:24.933Z,2.30
2022-09-06T23:58:53.477Z,2.20
